createdAt,value
2019-06-10T00:00:18.457Z,0.00
2019-06-10T00:01:21.129Z,0.00
2019-06-10T00:02:21.324Z,0.00
2019-06-10T00:03:20.630Z,0.00
2019-06-10T00:04:22.187Z,0.00
2019-06-10T00:05:21.594Z,0.00
2019-06-10T00:06:21.121Z,0.00
2019-06-10T00:07:21.537Z,0.00
2019-06-10T00:08:21.987Z,0.00
2019-06-10T00:09:22.425Z,0.00
2019-06-10T00:10:22.869Z,0.00
2019-06-10T00:11:23.301Z,0.00
2019-06-10T00:12:23.743Z,0.00
2019-06-10T00:13:24.193Z,0.00
2019-06-10T00:14:24.622Z,0.00
2019-06-10T00:15:25.140Z,0.00
2019-06-10T00:16:25.505Z,0.00
2019-06-10T00:17:25.950Z,0.00
2019-06-10T00:18:38.329Z,0.00
2019-06-10T00:19:26.830Z,0.00
2019-06-10T00:20:27.268Z,0.00
2019-06-10T00:21:27.711Z,0.00
2019-06-10T00:22:28.149Z,0.00
2019-06-10T00:23:28.592Z,0.00
2019-06-10T00:24:31.347Z,0.00
2019-06-10T00:25:31.485Z,0.00
2019-06-10T00:26:30.748Z,0.00
2019-06-10T00:27:31.197Z,0.00
2019-06-10T00:28:31.224Z,0.00
2019-06-10T00:29:31.379Z,0.00
2019-06-10T00:30:31.670Z,0.00
2019-06-10T00:31:32.116Z,0.00
2019-06-10T00:32:32.551Z,0.00
2019-06-10T00:33:33.002Z,0.00
2019-06-10T00:34:35.044Z,0.00
2019-06-10T00:35:33.871Z,0.00
2019-06-10T00:36:34.317Z,0.00
2019-06-10T00:37:34.754Z,0.00
2019-06-10T00:38:35.197Z,0.00
2019-06-10T00:39:35.640Z,0.00
2019-06-10T00:40:36.077Z,0.00
2019-06-10T00:41:36.521Z,0.00
2019-06-10T00:42:36.960Z,0.00
2019-06-10T00:43:37.400Z,0.00
2019-06-10T00:44:37.842Z,0.00
2019-06-10T00:45:40.789Z,0.00
2019-06-10T00:46:40.750Z,0.00
2019-06-10T00:47:41.303Z,0.00
2019-06-10T00:48:41.011Z,0.00
2019-06-10T00:49:40.952Z,0.00
2019-06-10T00:50:41.438Z,0.00
2019-06-10T00:51:41.482Z,0.00
2019-06-10T00:52:45.062Z,0.00
2019-06-10T00:53:42.294Z,0.00
2019-06-10T00:54:42.252Z,0.00
2019-06-10T00:55:42.680Z,0.00
2019-06-10T00:56:43.129Z,0.00
2019-06-10T00:57:43.569Z,0.00
2019-06-10T00:58:44.018Z,0.00
2019-06-10T00:59:44.446Z,0.00
2019-06-10T01:00:44.896Z,0.00
2019-06-10T01:01:45.339Z,0.00
2019-06-10T01:02:45.768Z,0.00
2019-06-10T01:03:46.207Z,0.00
2019-06-10T01:04:46.652Z,0.00
2019-06-10T01:05:47.090Z,0.00
2019-06-10T01:06:47.542Z,0.00
2019-06-10T01:07:47.971Z,0.00
2019-06-10T01:08:48.416Z,0.00
2019-06-10T01:09:48.853Z,0.00
2019-06-10T01:10:52.014Z,0.00
2019-06-10T01:11:51.890Z,0.00
2019-06-10T01:12:51.350Z,0.00
2019-06-10T01:13:50.908Z,0.00
2019-06-10T01:14:51.654Z,0.00
2019-06-10T01:15:51.506Z,0.00
2019-06-10T01:16:51.954Z,0.00
2019-06-10T01:17:52.380Z,0.00
2019-06-10T01:18:53.585Z,0.00
2019-06-10T01:19:53.267Z,0.00
2019-06-10T01:20:53.697Z,0.00
2019-06-10T01:23:31.062Z,0.00
2019-06-10T01:24:31.479Z,0.00
2019-06-10T01:26:25.514Z,0.00
2019-06-10T01:27:25.924Z,0.00
2019-06-10T01:29:21.155Z,0.00
2019-06-10T01:30:26.452Z,0.00
2019-06-10T01:32:15.525Z,0.00
2019-06-10T01:33:16.414Z,0.00
2019-06-10T01:35:13.861Z,0.00
2019-06-10T01:36:13.382Z,0.00
2019-06-10T01:38:07.818Z,0.00
2019-06-10T01:39:07.022Z,0.00
2019-06-10T01:41:01.883Z,0.00
2019-06-10T01:42:02.040Z,0.00
2019-06-10T01:43:56.618Z,0.00
2019-06-10T01:44:57.063Z,0.00
2019-06-10T01:46:53.565Z,0.00
2019-06-10T01:47:53.992Z,0.00
2019-06-10T01:49:48.577Z,0.00
2019-06-10T01:50:51.062Z,0.00
2019-06-10T01:52:43.597Z,0.00
2019-06-10T01:53:44.032Z,0.00
2019-06-10T01:55:38.617Z,0.00
2019-06-10T01:56:40.846Z,0.00
2019-06-10T01:58:34.599Z,0.00
2019-06-10T01:59:35.044Z,0.00
2019-06-10T02:01:30.776Z,0.00
2019-06-10T02:02:35.038Z,0.00
2019-06-10T02:04:25.615Z,0.00
2019-06-10T02:05:26.066Z,0.00
2019-06-10T02:07:22.854Z,0.00
2019-06-10T02:08:22.267Z,0.00
2019-06-10T02:10:17.539Z,0.00
2019-06-10T02:11:18.767Z,0.00
2019-06-10T02:13:12.108Z,0.00
2019-06-10T02:14:14.400Z,0.00
2019-06-10T02:16:05.970Z,0.00
2019-06-10T02:17:06.399Z,0.00
2019-06-10T02:19:03.986Z,0.00
2019-06-10T02:20:01.427Z,4.00
2019-06-10T02:21:56.013Z,4.00
2019-06-10T02:22:56.451Z,0.00
2019-06-10T02:24:51.033Z,4.00
2019-06-10T02:25:51.476Z,4.00
2019-06-10T02:27:46.333Z,4.00
2019-06-10T02:28:46.513Z,8.00
2019-06-10T02:30:50.330Z,8.00
2019-06-10T02:31:43.308Z,8.00
2019-06-10T02:33:36.888Z,8.00
2019-06-10T02:34:43.262Z,8.00
2019-06-10T02:36:36.594Z,12.00
2019-06-10T02:37:37.741Z,12.00
2019-06-10T02:39:33.694Z,12.00
2019-06-10T02:42:04.186Z,12.00
2019-06-10T02:43:03.524Z,12.00
2019-06-10T02:44:55.283Z,16.00
2019-06-10T02:45:55.720Z,20.00
2019-06-10T02:47:55.745Z,24.00
2019-06-10T02:48:56.171Z,28.00
2019-06-10T02:50:53.916Z,32.00
2019-06-10T02:51:53.775Z,28.00
2019-06-10T02:53:47.431Z,24.00
2019-06-10T02:54:47.865Z,20.00
2019-06-10T02:56:44.269Z,16.00
2019-06-10T02:57:44.876Z,16.00
2019-06-10T02:59:38.452Z,16.00
2019-06-10T03:02:13.546Z,20.00
2019-06-10T03:03:14.107Z,24.00
2019-06-10T03:05:07.032Z,24.00
2019-06-10T03:06:08.856Z,40.00
2019-06-10T03:08:03.843Z,64.00
2019-06-10T03:09:03.806Z,72.00
2019-06-10T03:10:58.145Z,112.00
2019-06-10T03:11:58.584Z,140.00
2019-06-10T03:13:53.216Z,152.00
2019-06-10T03:14:53.606Z,156.00
2019-06-10T03:16:48.701Z,140.00
2019-06-10T03:17:49.134Z,148.00
2019-06-10T03:19:50.282Z,168.00
2019-06-10T03:20:45.305Z,176.00
2019-06-10T03:22:42.139Z,204.00
2019-06-10T03:23:42.507Z,228.00
2019-06-10T03:25:35.040Z,264.00
2019-06-10T03:26:35.197Z,280.00
2019-06-10T03:28:32.153Z,324.00
2019-06-10T03:29:32.772Z,304.00
2019-06-10T03:31:33.977Z,244.00
2019-06-10T03:32:33.347Z,220.00
2019-06-10T03:34:29.968Z,244.00
2019-06-10T03:35:23.830Z,256.00
2019-06-10T03:37:18.315Z,260.00
2019-06-10T03:38:18.252Z,316.00
2019-06-10T03:40:13.172Z,312.00
2019-06-10T03:41:12.974Z,284.00
2019-06-10T03:43:08.529Z,248.00
2019-06-10T03:44:08.994Z,248.00
2019-06-10T03:46:04.520Z,260.00
2019-06-10T03:47:04.959Z,204.00
2019-06-10T03:48:59.544Z,152.00
2019-06-10T03:50:02.983Z,148.00
2019-06-10T03:51:54.549Z,108.00
2019-06-10T03:52:54.978Z,100.00
2019-06-10T03:54:49.554Z,84.00
2019-06-10T03:55:49.990Z,76.00
2019-06-10T03:57:44.568Z,72.00
2019-06-10T03:58:45.004Z,80.00
2019-06-10T04:00:39.580Z,140.00
2019-06-10T04:01:42.321Z,176.00
2019-06-10T04:03:35.582Z,188.00
2019-06-10T04:04:36.010Z,180.00
2019-06-10T04:06:33.519Z,148.00
2019-06-10T04:07:34.137Z,136.00
2019-06-10T04:08:32.836Z,152.00
2019-06-10T04:09:33.085Z,176.00
2019-06-10T04:10:32.509Z,200.00
2019-06-10T04:11:35.469Z,224.00
2019-06-10T04:12:33.233Z,252.00
2019-06-10T04:13:33.994Z,312.00
2019-06-10T04:14:34.097Z,412.00
2019-06-10T04:15:34.536Z,572.00
2019-06-10T04:16:34.970Z,800.00
2019-06-10T04:17:35.408Z,1000.00
2019-06-10T04:18:35.846Z,1080.00
2019-06-10T04:19:36.285Z,1084.00
2019-06-10T04:20:36.723Z,1040.00
2019-06-10T04:21:37.175Z,1036.00
2019-06-10T04:22:37.661Z,1064.00
2019-06-10T04:23:38.029Z,1100.00
2019-06-10T04:26:12.739Z,988.00
2019-06-10T04:27:12.334Z,940.00
2019-06-10T04:29:06.668Z,836.00
2019-06-10T04:30:07.099Z,812.00
2019-06-10T04:32:03.062Z,772.00
2019-06-10T04:33:02.386Z,756.00
2019-06-10T04:34:57.056Z,772.00
2019-06-10T04:35:57.482Z,772.00
2019-06-10T04:36:57.917Z,764.00
2019-06-10T04:38:02.388Z,780.00
2019-06-10T04:38:58.792Z,820.00
2019-06-10T04:39:59.269Z,884.00
2019-06-10T04:40:59.671Z,932.00
2019-06-10T04:42:02.306Z,968.00
2019-06-10T04:43:02.890Z,996.00
2019-06-10T04:44:02.752Z,1028.00
2019-06-10T04:45:03.131Z,1100.00
2019-06-10T04:46:02.594Z,1220.00
2019-06-10T04:47:02.835Z,1304.00
2019-06-10T04:48:03.143Z,1288.00
2019-06-10T04:49:03.168Z,1164.00
2019-06-10T04:50:03.607Z,1064.00
2019-06-10T04:51:04.037Z,972.00
2019-06-10T04:52:04.474Z,968.00
2019-06-10T04:53:04.911Z,952.00
2019-06-10T04:54:05.352Z,924.00
2019-06-10T04:55:05.782Z,1016.00
2019-06-10T04:56:06.233Z,1140.00
2019-06-10T04:57:06.659Z,1256.00
2019-06-10T04:58:07.093Z,1288.00
2019-06-10T04:59:07.532Z,1212.00
2019-06-10T05:00:12.029Z,1148.00
2019-06-10T05:01:08.406Z,1032.00
2019-06-10T05:02:08.849Z,992.00
2019-06-10T05:03:09.282Z,924.00
2019-06-10T05:04:09.715Z,908.00
2019-06-10T05:05:10.152Z,920.00
2019-06-10T05:06:12.329Z,880.00
2019-06-10T05:07:12.583Z,852.00
2019-06-10T05:08:13.165Z,788.00
2019-06-10T05:09:12.509Z,728.00
2019-06-10T05:10:12.547Z,708.00
2019-06-10T05:11:13.039Z,688.00
2019-06-10T05:12:13.207Z,636.00
2019-06-10T05:13:13.643Z,616.00
2019-06-10T05:14:14.079Z,608.00
2019-06-10T05:15:14.518Z,620.00
2019-06-10T05:16:14.956Z,616.00
2019-06-10T05:17:15.393Z,620.00
2019-06-10T05:18:15.828Z,624.00
2019-06-10T05:19:16.263Z,636.00
2019-06-10T05:20:16.702Z,652.00
2019-06-10T05:21:17.138Z,692.00
2019-06-10T05:22:19.638Z,784.00
2019-06-10T05:23:18.006Z,916.00
2019-06-10T05:24:19.684Z,1120.00
2019-06-10T05:25:20.397Z,1320.00
2019-06-10T05:26:20.033Z,1472.00
2019-06-10T05:27:22.162Z,1652.00
2019-06-10T05:28:20.184Z,1760.00
2019-06-10T05:29:22.957Z,1864.00
2019-06-10T05:30:22.785Z,2092.00
2019-06-10T05:31:23.218Z,2416.00
2019-06-10T05:32:23.225Z,2804.00
2019-06-10T05:33:23.127Z,3036.00
2019-06-10T05:34:25.301Z,3128.00
2019-06-10T05:35:24.371Z,3244.00
2019-06-10T05:36:28.356Z,3108.00
2019-06-10T05:37:26.339Z,3028.00
2019-06-10T05:38:25.884Z,2916.00
2019-06-10T05:39:27.531Z,2904.00
2019-06-10T05:40:26.534Z,3284.00
2019-06-10T05:41:27.832Z,3844.00
2019-06-10T05:42:27.865Z,4000.00
2019-06-10T05:43:27.807Z,4180.00
2019-06-10T05:44:28.464Z,4864.00
2019-06-10T05:45:29.024Z,5620.00
2019-06-10T05:46:28.712Z,5964.00
2019-06-10T05:47:29.860Z,6108.00
2019-06-10T05:48:28.935Z,6420.00
2019-06-10T05:49:30.496Z,6548.00
2019-06-10T05:50:31.136Z,6796.00
2019-06-10T05:51:31.337Z,7224.00
2019-06-10T05:52:31.421Z,8128.00
2019-06-10T05:53:33.579Z,9012.00
2019-06-10T05:54:33.751Z,9428.00
2019-06-10T05:55:33.734Z,9788.00
2019-06-10T05:56:35.132Z,10048.00
2019-06-10T05:57:35.209Z,9600.00
2019-06-10T05:58:35.805Z,9400.00
2019-06-10T05:59:35.476Z,9072.00
2019-06-10T06:00:35.549Z,7300.00
2019-06-10T06:01:37.935Z,6188.00
2019-06-10T06:02:35.540Z,5268.00
2019-06-10T06:03:37.027Z,4824.00
2019-06-10T06:04:36.192Z,4484.00
2019-06-10T06:05:38.047Z,3976.00
2019-06-10T06:06:37.511Z,4252.00
2019-06-10T06:07:37.601Z,4888.00
2019-06-10T06:08:37.699Z,5528.00
2019-06-10T06:09:38.144Z,6172.00
2019-06-10T06:10:38.587Z,6824.00
2019-06-10T06:11:39.069Z,7580.00
2019-06-10T06:12:39.461Z,8516.00
2019-06-10T06:13:39.898Z,9640.00
2019-06-10T06:14:42.576Z,9548.00
2019-06-10T06:15:42.455Z,9056.00
2019-06-10T06:16:43.300Z,8636.00
2019-06-10T06:17:43.268Z,7972.00
2019-06-10T06:18:42.447Z,7252.00
2019-06-10T06:19:43.307Z,6776.00
2019-06-10T06:20:43.662Z,6832.00
2019-06-10T06:21:47.548Z,7200.00
2019-06-10T06:22:43.865Z,7304.00
2019-06-10T06:23:44.306Z,7356.00
2019-06-10T06:24:44.750Z,7244.00
2019-06-10T06:25:47.005Z,7572.00
2019-06-10T06:26:45.621Z,7952.00
2019-06-10T06:27:46.066Z,8172.00
2019-06-10T06:28:46.501Z,8480.00
2019-06-10T06:29:46.962Z,9180.00
2019-06-10T06:30:47.390Z,9812.00
2019-06-10T06:31:47.830Z,10928.00
2019-06-10T06:32:48.263Z,12548.00
2019-06-10T06:33:48.712Z,14720.00
2019-06-10T06:34:49.154Z,16832.00
2019-06-10T06:35:52.292Z,19104.00
2019-06-10T06:36:50.037Z,18880.00
2019-06-10T06:37:53.952Z,19744.00
2019-06-10T06:38:53.133Z,15752.00
2019-06-10T06:39:52.328Z,14880.00
2019-06-10T06:40:53.703Z,14804.00
2019-06-10T06:41:52.824Z,14720.00
2019-06-10T06:42:52.696Z,14352.00
2019-06-10T06:43:53.291Z,14076.00
2019-06-10T06:44:53.576Z,13684.00
2019-06-10T06:45:54.019Z,14000.00
2019-06-10T06:46:54.470Z,14368.00
2019-06-10T06:47:54.910Z,14568.00
2019-06-10T06:48:55.361Z,13888.00
2019-06-10T06:49:55.804Z,13236.00
2019-06-10T06:51:04.517Z,12780.00
2019-06-10T06:51:59.311Z,12464.00
2019-06-10T06:53:30.122Z,12024.00
2019-06-10T06:53:57.586Z,10956.00
2019-06-10T06:54:58.028Z,10000.00
2019-06-10T06:55:58.471Z,9332.00
2019-06-10T06:56:58.918Z,8704.00
2019-06-10T06:57:59.362Z,8364.00
2019-06-10T06:58:59.813Z,8136.00
2019-06-10T07:00:00.250Z,8012.00
2019-06-10T07:01:09.778Z,7884.00
2019-06-10T07:02:02.768Z,7932.00
2019-06-10T07:03:03.076Z,8136.00
2019-06-10T07:04:02.662Z,8496.00
2019-06-10T07:05:03.159Z,8896.00
2019-06-10T07:06:02.945Z,9340.00
2019-06-10T07:07:03.365Z,9868.00
2019-06-10T07:08:03.811Z,11068.00
2019-06-10T07:09:07.816Z,11704.00
2019-06-10T07:10:04.698Z,13188.00
2019-06-10T07:11:05.144Z,20992.00
2019-06-10T07:12:05.594Z,14764.00
2019-06-10T07:13:06.031Z,14224.00
2019-06-10T07:14:09.877Z,19360.00
2019-06-10T07:15:06.915Z,18816.00
2019-06-10T07:16:07.382Z,12092.00
2019-06-10T07:17:07.809Z,12316.00
2019-06-10T07:18:08.263Z,12640.00
2019-06-10T07:19:08.703Z,12704.00
2019-06-10T07:20:09.147Z,13648.00
2019-06-10T07:21:09.601Z,27840.00
2019-06-10T07:22:15.273Z,21920.00
2019-06-10T07:23:12.878Z,20992.00
2019-06-10T07:24:12.637Z,15620.00
2019-06-10T07:25:12.421Z,11788.00
2019-06-10T07:26:12.728Z,9828.00
2019-06-10T07:27:13.105Z,9008.00
2019-06-10T07:28:12.718Z,8140.00
2019-06-10T07:29:13.402Z,8264.00
2019-06-10T07:30:15.119Z,8756.00
2019-06-10T07:31:23.110Z,8856.00
2019-06-10T07:32:14.507Z,8624.00
2019-06-10T07:33:14.969Z,8560.00
2019-06-10T07:34:15.395Z,9196.00
2019-06-10T07:35:15.837Z,9828.00
2019-06-10T07:36:16.279Z,10292.00
2019-06-10T07:37:16.724Z,10612.00
2019-06-10T07:38:17.173Z,11068.00
2019-06-10T07:39:17.650Z,11300.00
2019-06-10T07:40:18.075Z,11300.00
2019-06-10T07:41:18.515Z,12032.00
2019-06-10T07:42:18.953Z,12476.00
2019-06-10T07:43:19.408Z,11584.00
2019-06-10T07:44:19.874Z,11792.00
2019-06-10T07:45:22.119Z,11740.00
2019-06-10T07:46:22.990Z,11384.00
2019-06-10T07:47:23.151Z,11696.00
2019-06-10T07:48:22.258Z,11816.00
2019-06-10T07:49:23.888Z,13576.00
2019-06-10T07:50:22.757Z,12668.00
2019-06-10T07:51:22.970Z,11572.00
2019-06-10T07:52:23.714Z,11140.00
2019-06-10T07:53:23.869Z,10372.00
2019-06-10T07:54:24.309Z,10120.00
2019-06-10T07:55:24.747Z,10516.00
2019-06-10T07:56:25.192Z,10828.00
2019-06-10T07:57:25.647Z,10752.00
2019-06-10T07:58:26.085Z,10640.00
2019-06-10T07:59:26.559Z,10636.00
2019-06-10T08:00:26.980Z,10868.00
2019-06-10T08:01:27.423Z,10920.00
2019-06-10T08:02:27.875Z,10992.00
2019-06-10T08:03:28.313Z,10912.00
2019-06-10T08:04:28.766Z,10872.00
2019-06-10T08:05:29.211Z,10700.00
2019-06-10T08:06:29.659Z,10788.00
2019-06-10T08:07:30.156Z,10640.00
2019-06-10T08:08:32.619Z,10356.00
2019-06-10T08:09:33.174Z,10360.00
2019-06-10T08:10:32.780Z,10728.00
2019-06-10T08:11:33.251Z,11472.00
2019-06-10T08:12:32.622Z,11848.00
2019-06-10T08:13:32.782Z,12824.00
2019-06-10T08:14:33.226Z,14744.00
2019-06-10T08:15:33.670Z,18112.00
2019-06-10T08:18:07.231Z,23488.00
2019-06-10T08:19:26.357Z,19584.00
2019-06-10T08:21:03.164Z,19968.00
2019-06-10T08:22:03.057Z,25792.00
2019-06-10T08:23:58.298Z,37440.00
2019-06-10T08:24:58.780Z,35552.00
2019-06-10T08:26:54.342Z,27360.00
2019-06-10T08:27:54.785Z,21376.00
2019-06-10T08:29:54.177Z,18912.00
2019-06-10T08:30:49.840Z,18752.00
2019-06-10T08:32:46.824Z,16160.00
2019-06-10T08:33:47.353Z,15116.00
2019-06-10T08:35:48.366Z,17056.00
2019-06-10T08:36:45.014Z,19840.00
2019-06-10T08:38:36.292Z,15296.00
2019-06-10T08:39:36.228Z,13416.00
2019-06-10T08:41:32.241Z,12996.00
2019-06-10T08:42:32.360Z,12600.00
2019-06-10T08:44:25.644Z,11860.00
2019-06-10T08:45:26.070Z,11700.00
2019-06-10T08:47:22.830Z,11712.00
2019-06-10T08:48:22.733Z,11880.00
2019-06-10T08:50:15.773Z,11740.00
2019-06-10T08:51:16.154Z,11884.00
2019-06-10T08:53:15.564Z,12136.00
2019-06-10T08:54:12.820Z,12104.00
2019-06-10T08:56:07.170Z,12952.00
2019-06-10T08:57:07.210Z,13452.00
2019-06-10T08:58:07.654Z,15384.00
2019-06-10T08:59:08.099Z,17184.00
2019-06-10T09:00:12.479Z,14964.00
2019-06-10T09:01:08.996Z,13300.00
2019-06-10T09:02:09.453Z,12956.00
2019-06-10T09:03:12.411Z,12988.00
2019-06-10T09:04:10.345Z,13384.00
2019-06-10T09:05:12.571Z,13984.00
2019-06-10T09:06:13.330Z,14616.00
2019-06-10T09:07:12.562Z,15432.00
2019-06-10T09:08:13.016Z,19040.00
2019-06-10T09:09:12.982Z,26656.00
2019-06-10T09:10:13.552Z,25312.00
2019-06-10T09:11:13.472Z,24000.00
2019-06-10T09:12:28.763Z,27104.00
2019-06-10T09:13:14.367Z,22688.00
2019-06-10T09:14:14.823Z,19584.00
2019-06-10T09:15:15.283Z,17472.00
2019-06-10T09:16:19.110Z,17440.00
2019-06-10T09:17:16.166Z,18336.00
2019-06-10T09:18:19.949Z,19328.00
2019-06-10T09:19:17.063Z,21312.00
2019-06-10T09:20:17.532Z,18496.00
2019-06-10T09:21:17.971Z,17920.00
2019-06-10T09:22:18.419Z,16512.00
2019-06-10T09:23:22.445Z,15476.00
2019-06-10T09:24:19.341Z,15276.00
2019-06-10T09:25:22.436Z,15904.00
2019-06-10T09:26:22.699Z,16512.00
2019-06-10T09:27:24.461Z,18080.00
2019-06-10T09:28:23.504Z,19168.00
2019-06-10T09:29:22.268Z,22144.00
2019-06-10T09:30:22.712Z,22560.00
2019-06-10T09:31:23.743Z,27392.00
2019-06-10T09:32:23.514Z,24672.00
2019-06-10T09:33:23.395Z,28320.00
2019-06-10T09:34:23.966Z,27968.00
2019-06-10T09:35:24.326Z,24416.00
2019-06-10T09:36:24.721Z,20288.00
2019-06-10T09:37:25.175Z,18272.00
2019-06-10T09:38:25.636Z,17408.00
2019-06-10T09:39:26.094Z,18368.00
2019-06-10T09:40:26.539Z,22176.00
2019-06-10T09:41:39.439Z,21824.00
2019-06-10T09:42:27.440Z,22400.00
2019-06-10T09:43:27.884Z,23168.00
2019-06-10T09:44:28.336Z,25408.00
2019-06-10T09:45:28.785Z,23744.00
2019-06-10T09:46:29.247Z,25920.00
2019-06-10T09:47:29.690Z,25472.00
2019-06-10T09:48:30.144Z,25056.00
2019-06-10T09:49:32.811Z,23232.00
2019-06-10T09:50:33.316Z,26144.00
2019-06-10T09:51:32.470Z,35488.00
2019-06-10T09:52:32.910Z,46560.00
2019-06-10T09:53:39.271Z,43232.00
2019-06-10T09:54:33.576Z,33632.00
2019-06-10T09:55:33.313Z,30976.00
2019-06-10T09:56:33.774Z,28288.00
2019-06-10T09:57:34.221Z,43744.00
2019-06-10T09:58:34.679Z,38944.00
2019-06-10T09:59:35.135Z,36640.00
2019-06-10T10:00:35.599Z,40096.00
2019-06-10T10:01:36.046Z,39936.00
2019-06-10T10:02:36.520Z,29216.00
2019-06-10T10:03:36.962Z,28064.00
2019-06-10T10:04:37.662Z,22368.00
2019-06-10T10:05:37.876Z,25792.00
2019-06-10T10:06:38.325Z,14528.00
2019-06-10T10:07:38.776Z,12892.00
2019-06-10T10:08:39.246Z,12664.00
2019-06-10T10:09:42.087Z,13084.00
2019-06-10T10:10:41.639Z,14152.00
2019-06-10T10:11:44.134Z,16704.00
2019-06-10T10:12:44.042Z,19552.00
2019-06-10T10:13:44.145Z,19136.00
2019-06-10T10:14:44.780Z,21984.00
2019-06-10T10:15:43.527Z,18144.00
2019-06-10T10:16:47.759Z,15392.00
2019-06-10T10:17:46.545Z,16416.00
2019-06-10T10:18:47.287Z,20192.00
2019-06-10T10:19:46.852Z,20608.00
2019-06-10T10:20:48.091Z,18816.00
2019-06-10T10:21:49.490Z,50144.00
2019-06-10T10:22:47.056Z,58464.00
2019-06-10T10:23:56.808Z,18944.00
2019-06-10T10:24:47.563Z,16736.00
2019-06-10T10:25:48.248Z,19584.00
2019-06-10T10:26:50.859Z,24160.00
2019-06-10T10:27:51.251Z,92640.00
2019-06-10T10:28:50.327Z,84384.00
2019-06-10T10:29:50.610Z,77632.00
2019-06-10T10:30:52.719Z,68384.00
2019-06-10T10:31:52.409Z,62080.00
2019-06-10T10:32:52.239Z,41440.00
2019-06-10T10:33:50.658Z,26688.00
2019-06-10T10:34:52.525Z,18528.00
2019-06-10T10:35:52.656Z,16192.00
2019-06-10T10:36:56.954Z,13628.00
2019-06-10T10:37:54.313Z,12568.00
2019-06-10T10:38:53.572Z,12180.00
2019-06-10T10:39:56.293Z,12068.00
2019-06-10T10:40:58.455Z,11988.00
2019-06-10T10:41:56.888Z,11932.00
2019-06-10T10:43:10.171Z,11936.00
2019-06-10T10:43:57.791Z,12008.00
2019-06-10T10:44:58.911Z,12324.00
2019-06-10T10:46:00.228Z,12928.00
2019-06-10T10:46:56.555Z,13640.00
2019-06-10T10:47:57.763Z,14252.00
2019-06-10T10:48:57.465Z,14924.00
2019-06-10T10:49:58.173Z,14720.00
2019-06-10T10:50:58.386Z,14980.00
2019-06-10T10:51:58.837Z,15424.00
2019-06-10T10:52:59.294Z,15416.00
2019-06-10T10:54:21.032Z,15604.00
2019-06-10T10:55:05.894Z,16000.00
2019-06-10T10:56:02.300Z,16224.00
2019-06-10T10:57:02.602Z,17408.00
2019-06-10T10:58:03.200Z,18624.00
2019-06-10T10:59:02.222Z,19872.00
2019-06-10T11:00:03.095Z,20640.00
2019-06-10T11:01:04.061Z,20384.00
2019-06-10T11:02:03.371Z,22560.00
2019-06-10T11:03:03.862Z,22624.00
2019-06-10T11:04:04.284Z,22976.00
2019-06-10T11:05:04.753Z,22432.00
2019-06-10T11:06:05.294Z,20544.00
2019-06-10T11:07:05.645Z,18240.00
2019-06-10T11:08:06.110Z,18432.00
2019-06-10T11:09:06.548Z,15544.00
2019-06-10T11:10:07.010Z,14400.00
2019-06-10T11:11:07.461Z,14084.00
2019-06-10T11:12:08.633Z,13900.00
2019-06-10T11:13:08.377Z,13920.00
2019-06-10T11:14:08.830Z,13780.00
2019-06-10T11:15:09.277Z,13352.00
2019-06-10T11:16:09.759Z,12976.00
2019-06-10T11:17:10.191Z,12900.00
2019-06-10T11:18:12.661Z,13128.00
2019-06-10T11:19:13.038Z,12904.00
2019-06-10T11:20:13.634Z,12724.00
2019-06-10T11:21:13.252Z,12512.00
2019-06-10T11:22:12.678Z,12392.00
2019-06-10T11:23:12.909Z,12152.00
2019-06-10T11:24:14.516Z,11956.00
2019-06-10T11:25:13.817Z,11796.00
2019-06-10T11:26:14.274Z,11724.00
2019-06-10T11:27:14.730Z,11708.00
2019-06-10T11:28:15.181Z,11896.00
2019-06-10T11:29:15.636Z,12072.00
2019-06-10T11:30:16.087Z,12296.00
2019-06-10T11:31:16.540Z,12572.00
2019-06-10T11:32:17.004Z,12756.00
2019-06-10T11:33:17.448Z,13064.00
2019-06-10T11:34:19.855Z,13432.00
2019-06-10T11:35:18.395Z,13624.00
2019-06-10T11:36:18.810Z,13904.00
2019-06-10T11:37:19.267Z,14256.00
2019-06-10T11:38:19.713Z,14700.00
2019-06-10T11:39:22.448Z,15076.00
2019-06-10T11:40:22.429Z,15316.00
2019-06-10T11:41:23.488Z,15608.00
2019-06-10T11:42:23.320Z,15880.00
2019-06-10T11:43:22.598Z,16256.00
2019-06-10T11:44:22.559Z,16416.00
2019-06-10T11:45:22.889Z,16576.00
2019-06-10T11:46:23.348Z,16800.00
2019-06-10T11:47:23.808Z,16800.00
2019-06-10T11:48:24.482Z,16160.00
2019-06-10T11:49:24.706Z,15252.00
2019-06-10T11:50:25.166Z,14928.00
2019-06-10T11:51:25.614Z,14548.00
2019-06-10T11:52:26.067Z,13864.00
2019-06-10T11:53:28.702Z,13156.00
2019-06-10T11:54:26.971Z,12712.00
2019-06-10T11:55:27.437Z,12508.00
2019-06-10T11:56:27.883Z,12440.00
2019-06-10T11:57:28.333Z,12468.00
2019-06-10T11:58:28.795Z,12568.00
2019-06-10T11:59:29.244Z,12732.00
2019-06-10T12:00:32.426Z,12916.00
2019-06-10T12:01:30.916Z,13160.00
2019-06-10T12:02:32.845Z,13392.00
2019-06-10T12:03:31.055Z,13504.00
2019-06-10T12:04:31.513Z,13656.00
2019-06-10T12:05:32.669Z,13896.00
2019-06-10T12:06:33.966Z,14020.00
2019-06-10T12:07:33.237Z,14180.00
2019-06-10T12:08:33.327Z,14268.00
2019-06-10T12:09:33.775Z,14404.00
2019-06-10T12:10:34.234Z,14304.00
2019-06-10T12:11:34.680Z,14168.00
2019-06-10T12:12:35.139Z,13684.00
2019-06-10T12:13:35.586Z,13048.00
2019-06-10T12:14:36.045Z,12352.00
2019-06-10T12:16:13.851Z,11740.00
2019-06-10T12:17:46.996Z,11228.00
2019-06-10T12:18:37.851Z,11196.00
2019-06-10T12:19:38.567Z,11324.00
2019-06-10T12:20:38.757Z,11540.00
2019-06-10T12:21:39.217Z,11876.00
2019-06-10T12:22:39.669Z,12256.00
2019-06-10T12:23:40.117Z,12532.00
2019-06-10T12:24:43.197Z,12668.00
2019-06-10T12:25:43.668Z,12712.00
2019-06-10T12:26:43.435Z,12728.00
2019-06-10T12:27:43.363Z,12772.00
2019-06-10T12:28:43.112Z,12888.00
2019-06-10T12:29:42.832Z,12984.00
2019-06-10T12:30:43.283Z,12820.00
2019-06-10T12:31:43.744Z,12592.00
2019-06-10T12:32:44.190Z,12240.00
2019-06-10T12:33:44.641Z,11872.00
2019-06-10T12:34:46.276Z,11444.00
2019-06-10T12:35:45.553Z,11064.00
2019-06-10T12:36:46.002Z,10884.00
2019-06-10T12:37:46.463Z,10912.00
2019-06-10T12:38:46.900Z,10944.00
2019-06-10T12:39:47.357Z,10904.00
2019-06-10T12:40:47.816Z,10928.00
2019-06-10T12:41:48.260Z,11096.00
2019-06-10T12:42:48.719Z,11408.00
2019-06-10T12:43:49.170Z,11512.00
2019-06-10T12:44:49.620Z,11652.00
2019-06-10T12:45:52.524Z,11760.00
2019-06-10T12:46:54.040Z,11844.00
2019-06-10T12:47:53.326Z,11848.00
2019-06-10T12:48:53.964Z,11780.00
2019-06-10T12:49:53.392Z,11628.00
2019-06-10T12:50:53.887Z,11564.00
2019-06-10T12:51:54.170Z,11624.00
2019-06-10T12:52:54.977Z,11728.00
2019-06-10T12:53:53.693Z,11988.00
2019-06-10T12:54:55.509Z,12332.00
2019-06-10T12:55:55.860Z,12768.00
2019-06-10T12:56:56.501Z,12920.00
2019-06-10T12:57:56.142Z,13016.00
2019-06-10T12:58:57.640Z,13344.00
2019-06-10T12:59:56.417Z,14148.00
2019-06-10T13:00:57.236Z,14616.00
2019-06-10T13:01:58.043Z,14684.00
2019-06-10T13:02:58.364Z,14536.00
2019-06-10T13:03:59.459Z,14392.00
2019-06-10T13:04:59.637Z,14764.00
2019-06-10T13:05:59.573Z,14932.00
2019-06-10T13:07:00.323Z,14624.00
2019-06-10T13:08:02.827Z,14632.00
2019-06-10T13:09:02.623Z,14588.00
2019-06-10T13:10:02.628Z,14708.00
2019-06-10T13:11:02.097Z,14536.00
2019-06-10T13:12:02.141Z,14156.00
2019-06-10T13:13:06.644Z,14004.00
2019-06-10T13:14:05.115Z,13960.00
2019-06-10T13:15:06.730Z,13648.00
2019-06-10T13:16:08.163Z,13288.00
2019-06-10T13:17:05.722Z,13300.00
2019-06-10T13:18:07.563Z,13200.00
2019-06-10T13:19:07.485Z,13740.00
2019-06-10T13:20:06.415Z,13480.00
2019-06-10T13:21:11.716Z,13040.00
2019-06-10T13:22:07.613Z,12500.00
2019-06-10T13:23:17.322Z,12112.00
2019-06-10T13:24:07.905Z,11412.00
2019-06-10T13:25:07.768Z,11560.00
2019-06-10T13:26:12.588Z,11264.00
2019-06-10T13:27:08.671Z,10364.00
2019-06-10T13:28:09.138Z,9984.00